createdAt,value
2019-03-08T00:00:18.301Z,4.57
2019-03-08T00:05:24.761Z,3.80
2019-03-08T00:10:29.576Z,3.23
2019-03-08T00:15:34.369Z,3.87
2019-03-08T00:20:39.546Z,3.03
2019-03-08T00:25:44.742Z,4.67
2019-03-08T00:30:49.699Z,1.60
2019-03-08T00:35:54.536Z,2.90
2019-03-08T00:40:59.309Z,2.23
2019-03-08T00:46:04.622Z,1.32
2019-03-08T00:51:09.392Z,1.33
2019-03-08T00:56:14.255Z,3.90
2019-03-08T01:01:19.236Z,3.07
2019-03-08T01:06:23.960Z,1.47
2019-03-08T01:11:28.734Z,4.63
2019-03-08T01:16:33.526Z,0.70
2019-03-08T01:21:38.384Z,2.50
2019-03-08T01:26:43.229Z,2.43
2019-03-08T01:31:48.042Z,2.07
2019-03-08T01:36:52.795Z,2.37
2019-03-08T01:41:57.648Z,2.03
2019-03-08T01:47:02.417Z,5.27
2019-03-08T01:52:07.138Z,3.53
2019-03-08T01:57:11.927Z,3.10
2019-03-08T02:02:16.766Z,2.40
2019-03-08T02:07:21.976Z,3.73
2019-03-08T02:12:27.048Z,3.60
2019-03-08T02:17:31.842Z,3.43
2019-03-08T02:22:36.765Z,4.23
2019-03-08T02:27:41.733Z,5.43
2019-03-08T02:32:46.774Z,2.40
2019-03-08T02:37:51.637Z,2.30
2019-03-08T02:42:56.511Z,3.53
2019-03-08T02:48:01.352Z,4.53
2019-03-08T02:53:07.608Z,2.27
2019-03-08T02:58:12.560Z,2.17
2019-03-08T03:03:17.925Z,1.95
2019-03-08T03:08:22.742Z,2.10
2019-03-08T03:13:27.901Z,1.87
2019-03-08T03:18:32.633Z,3.53
2019-03-08T03:23:37.481Z,3.93
2019-03-08T03:28:42.363Z,4.80
2019-03-08T03:33:48.051Z,4.70
2019-03-08T03:38:52.999Z,1.67
2019-03-08T03:43:57.885Z,4.87
2019-03-08T03:49:02.597Z,2.47
2019-03-08T03:54:07.701Z,4.17
2019-03-08T03:59:12.437Z,4.33
2019-03-08T04:04:17.196Z,2.27
2019-03-08T04:09:22.013Z,3.63
2019-03-08T04:14:26.836Z,3.23
2019-03-08T04:19:31.654Z,4.53
2019-03-08T04:24:36.462Z,1.47
2019-03-08T04:29:41.291Z,2.43
2019-03-08T04:34:46.079Z,4.97
2019-03-08T04:39:51.102Z,2.77
2019-03-08T04:44:55.920Z,6.83
2019-03-08T04:50:00.756Z,1.47
2019-03-08T04:55:07.525Z,2.87
2019-03-08T05:00:13.360Z,1.37
2019-03-08T05:05:18.080Z,3.98
2019-03-08T05:15:27.769Z,2.10
2019-03-08T05:20:32.581Z,2.30
2019-03-08T05:25:37.378Z,1.93
2019-03-08T05:30:42.361Z,3.43
2019-03-08T05:35:47.138Z,1.83
2019-03-08T05:40:52.245Z,4.23
2019-03-08T05:45:57.019Z,2.40
2019-03-08T05:51:01.868Z,1.67
2019-03-08T05:56:06.674Z,2.20
2019-03-08T06:01:11.373Z,3.17
2019-03-08T06:06:16.180Z,1.60
2019-03-08T06:11:21.698Z,3.20
2019-03-08T06:16:26.523Z,5.60
2019-03-08T06:21:31.390Z,4.43
2019-03-08T06:26:37.235Z,3.57
2019-03-08T06:31:42.188Z,4.83
2019-03-08T06:37:06.257Z,5.73
2019-03-08T06:42:11.060Z,1.30
2019-03-08T06:47:15.909Z,1.70
2019-03-08T06:52:21.676Z,3.47
2019-03-08T06:57:26.381Z,2.50
2019-03-08T07:02:31.252Z,2.00
2019-03-08T07:07:36.259Z,1.90
2019-03-08T07:12:41.114Z,3.00
2019-03-08T07:17:45.945Z,1.93
2019-03-08T07:23:05.650Z,1.73
2019-03-08T07:28:34.475Z,4.27
2019-03-08T07:33:53.183Z,3.70
2019-03-08T07:39:12.966Z,6.63
2019-03-08T07:44:40.094Z,3.57
2019-03-08T07:49:53.948Z,1.57
2019-03-08T07:55:20.926Z,2.53
2019-03-08T08:00:57.209Z,2.43
2019-03-08T08:06:06.554Z,2.40
2019-03-08T08:11:42.716Z,3.30
2019-03-08T08:17:06.310Z,2.87
2019-03-08T08:22:39.090Z,2.87
2019-03-08T08:28:01.929Z,1.77
2019-03-08T08:33:25.591Z,2.27
2019-03-08T08:38:49.493Z,5.83
2019-03-08T08:44:26.116Z,2.53
2019-03-08T08:49:54.859Z,1.83
2019-03-08T08:55:19.203Z,7.17
2019-03-08T09:00:42.127Z,1.60
2019-03-08T09:06:17.329Z,3.73
2019-03-08T09:11:27.339Z,3.17
2019-03-08T09:16:51.171Z,4.50
2019-03-08T09:22:15.439Z,5.40
2019-03-08T09:27:25.099Z,4.57
2019-03-08T09:32:47.477Z,3.87
2019-03-08T09:37:57.744Z,4.30
2019-03-08T09:43:13.721Z,3.90
2019-03-08T09:48:48.497Z,3.60
2019-03-08T09:54:09.656Z,3.23
2019-03-08T09:59:27.710Z,4.00
2019-03-08T10:04:50.377Z,5.07
2019-03-08T10:10:13.314Z,3.37
2019-03-08T10:15:36.704Z,3.27
2019-03-08T10:21:05.708Z,2.57
2019-03-08T10:26:29.540Z,7.25
2019-03-08T10:31:40.803Z,7.43
2019-03-08T10:37:02.567Z,4.40
2019-03-08T10:42:26.189Z,3.23
2019-03-08T10:47:55.965Z,3.30
2019-03-08T10:53:18.567Z,3.40
2019-03-08T10:58:46.840Z,3.50
2019-03-08T11:04:00.559Z,2.83
2019-03-08T11:09:30.059Z,4.10
2019-03-08T11:14:58.359Z,2.07
2019-03-08T11:20:28.275Z,2.37
2019-03-08T11:26:07.677Z,5.70
2019-03-08T11:31:24.119Z,5.93
2019-03-08T11:36:42.874Z,5.90
2019-03-08T11:41:58.329Z,4.73
2019-03-08T11:47:11.057Z,6.77
2019-03-08T11:52:33.700Z,2.47
2019-03-08T11:58:09.711Z,3.37
2019-03-08T12:03:46.213Z,2.97
2019-03-08T12:08:57.907Z,5.03
2019-03-08T12:14:20.896Z,2.50
2019-03-08T12:19:35.331Z,8.93
2019-03-08T12:24:52.252Z,10.97
2019-03-08T12:30:16.855Z,10.57
2019-03-08T12:35:35.329Z,11.40
2019-03-08T12:40:58.191Z,7.03
2019-03-08T12:46:40.811Z,9.20
2019-03-08T12:51:50.758Z,9.67
2019-03-08T12:57:13.333Z,10.50
2019-03-08T13:02:43.515Z,13.77
2019-03-08T13:08:12.092Z,10.17
2019-03-08T13:13:16.932Z,5.85
2019-03-08T13:18:21.809Z,7.30
2019-03-08T13:23:28.464Z,11.97
2019-03-08T13:28:33.482Z,8.10
2019-03-08T13:33:38.609Z,11.10
2019-03-08T13:38:43.721Z,16.87
2019-03-08T13:43:48.618Z,13.63
2019-03-08T13:48:53.508Z,11.47
2019-03-08T13:53:58.392Z,12.33
2019-03-08T13:59:03.125Z,9.77
2019-03-08T14:04:07.970Z,9.47
2019-03-08T14:09:12.783Z,8.95
2019-03-08T14:14:17.914Z,6.73
2019-03-08T14:19:22.977Z,11.63
2019-03-08T14:24:27.836Z,10.57
2019-03-08T14:29:32.638Z,9.27
2019-03-08T14:34:37.422Z,7.92
2019-03-08T14:39:44.364Z,11.03
2019-03-08T14:45:20.074Z,4.20
2019-03-08T14:50:25.027Z,8.50
2019-03-08T14:55:29.793Z,7.67
2019-03-08T15:00:34.958Z,6.13
2019-03-08T15:05:40.099Z,8.85
2019-03-08T15:10:47.119Z,8.93
2019-03-08T15:15:51.379Z,9.37
2019-03-08T15:20:58.536Z,14.50
2019-03-08T15:26:02.610Z,7.90
2019-03-08T15:31:07.332Z,7.37
2019-03-08T15:36:12.134Z,9.50
2019-03-08T15:41:17.269Z,5.97
2019-03-08T15:46:22.465Z,10.37
2019-03-08T15:51:29.201Z,12.23
2019-03-08T15:56:34.215Z,13.07
2019-03-08T16:01:39.038Z,8.97
2019-03-08T16:06:45.374Z,11.57
2019-03-08T16:11:50.346Z,8.00
2019-03-08T16:16:55.182Z,7.70
2019-03-08T16:22:00.240Z,9.87
2019-03-08T16:27:05.109Z,7.90
2019-03-08T16:32:34.571Z,11.87
2019-03-08T16:38:04.074Z,12.60
2019-03-08T16:43:30.699Z,8.60
2019-03-08T16:48:54.307Z,6.10
2019-03-08T16:54:16.218Z,8.30
2019-03-08T16:59:39.123Z,9.70
2019-03-08T17:05:04.523Z,11.67
2019-03-08T17:10:33.276Z,13.00
2019-03-08T17:15:45.209Z,10.67
2019-03-08T17:20:56.959Z,7.23
2019-03-08T17:26:26.889Z,13.50
2019-03-08T17:31:40.817Z,11.40
2019-03-08T17:36:57.391Z,14.97
2019-03-08T17:42:21.309Z,11.80
2019-03-08T17:47:44.297Z,12.63
2019-03-08T17:53:08.044Z,10.10
2019-03-08T17:58:26.659Z,10.75
2019-03-08T18:03:41.891Z,13.17
2019-03-08T18:08:53.911Z,11.87
2019-03-08T18:14:17.764Z,10.10
2019-03-08T18:19:47.485Z,8.30
2019-03-08T18:25:05.935Z,18.17
2019-03-08T18:30:30.157Z,12.65
2019-03-08T18:35:53.914Z,9.97
2019-03-08T18:41:05.754Z,7.93
2019-03-08T18:46:38.831Z,14.00
2019-03-08T18:51:51.375Z,13.73
2019-03-08T18:57:09.052Z,11.00
2019-03-08T19:02:28.492Z,13.83
2019-03-08T19:07:43.602Z,8.43
2019-03-08T19:13:16.372Z,19.27
2019-03-08T19:18:37.068Z,17.53
2019-03-08T19:23:47.440Z,11.97
2019-03-08T19:29:04.794Z,14.60
2019-03-08T19:34:29.333Z,12.47
2019-03-08T19:39:56.447Z,9.80
2019-03-08T19:45:15.680Z,9.67
2019-03-08T19:50:36.722Z,16.83
2019-03-08T19:55:59.282Z,13.90
2019-03-08T20:01:23.265Z,14.47
2019-03-08T20:06:45.959Z,14.90
2019-03-08T20:12:19.099Z,12.33
2019-03-08T20:17:42.944Z,12.10
2019-03-08T20:23:03.319Z,16.30
2019-03-08T20:28:22.298Z,11.37
2019-03-08T20:33:33.690Z,12.50
2019-03-08T20:38:55.086Z,13.60
2019-03-08T20:44:24.772Z,11.00
2019-03-08T20:49:29.592Z,10.83
2019-03-08T20:54:34.427Z,13.47
2019-03-08T20:59:39.219Z,12.17
2019-03-08T21:04:43.939Z,12.57
2019-03-08T21:09:49.639Z,11.27
2019-03-08T21:14:54.421Z,14.17
2019-03-08T21:19:59.476Z,13.17
2019-03-08T21:25:05.672Z,12.27
2019-03-08T21:30:13.860Z,12.33
2019-03-08T21:35:18.711Z,10.33
2019-03-08T21:40:23.755Z,8.90
2019-03-08T21:45:28.521Z,13.87
2019-03-08T21:50:33.593Z,14.77
2019-03-08T21:55:38.399Z,9.87
2019-03-08T22:00:43.753Z,13.33
2019-03-08T22:05:48.519Z,14.00
2019-03-08T22:11:10.871Z,12.63
2019-03-08T22:16:15.925Z,17.00
2019-03-08T22:21:20.624Z,10.87
2019-03-08T22:26:25.346Z,12.30
2019-03-08T22:31:30.036Z,11.57
2019-03-08T22:36:34.820Z,13.33
2019-03-08T22:41:39.646Z,8.23
2019-03-08T22:46:46.092Z,8.87
2019-03-08T22:51:51.629Z,8.97
2019-03-08T22:56:56.358Z,8.57
2019-03-08T23:02:09.366Z,7.10
2019-03-08T23:07:14.139Z,6.55
2019-03-08T23:12:19.166Z,8.50
2019-03-08T23:17:24.038Z,9.13
2019-03-08T23:22:28.949Z,12.57
2019-03-08T23:27:38.740Z,12.30
2019-03-08T23:32:46.811Z,13.77
2019-03-08T23:37:51.720Z,8.67
2019-03-08T23:42:56.428Z,7.07
2019-03-08T23:48:01.172Z,8.37
2019-03-08T23:53:06.090Z,8.67
2019-03-08T23:58:11.838Z,9.03
